sensor_id;sensor_type;location;lat;lon;timestamp;pressure;altitude;pressure_sealevel;temperature;humidity
34034;BME280;63481;52.588;22.472;2023-04-29T00:00:12;100343.50;;;4.83;64.94
34034;BME280;63481;52.588;22.472;2023-04-29T00:01:05;100344.92;;;4.84;64.99
34034;BME280;63481;52.588;22.472;2023-04-29T00:01:37;100343.39;;;4.85;64.64
34034;BME280;63481;52.588;22.472;2023-04-29T00:02:09;100340.65;;;4.83;65.30
34034;BME280;63481;52.588;22.472;2023-04-29T00:02:42;100346.70;;;4.86;64.50
34034;BME280;63481;52.588;22.472;2023-04-29T00:03:14;100343.79;;;4.85;65.06
34034;BME280;63481;52.588;22.472;2023-04-29T00:03:47;100343.78;;;4.86;64.03
34034;BME280;63481;52.588;22.472;2023-04-29T00:04:20;100344.80;;;4.90;64.47
34034;BME280;63481;52.588;22.472;2023-04-29T00:04:53;100342.98;;;4.87;64.84
34034;BME280;63481;52.588;22.472;2023-04-29T00:05:25;100344.31;;;4.89;64.72
34034;BME280;63481;52.588;22.472;2023-04-29T00:05:58;100339.92;;;4.85;65.50
34034;BME280;63481;52.588;22.472;2023-04-29T00:06:31;100342.87;;;4.84;64.48
34034;BME280;63481;52.588;22.472;2023-04-29T00:07:03;100343.49;;;4.85;64.37
34034;BME280;63481;52.588;22.472;2023-04-29T00:07:35;100342.84;;;4.93;63.58
34034;BME280;63481;52.588;22.472;2023-04-29T00:08:07;100340.96;;;4.96;64.22
34034;BME280;63481;52.588;22.472;2023-04-29T00:08:39;100345.93;;;4.94;64.56
34034;BME280;63481;52.588;22.472;2023-04-29T00:09:12;100342.94;;;4.92;64.66
34034;BME280;63481;52.588;22.472;2023-04-29T00:09:44;100344.15;;;4.88;64.84
34034;BME280;63481;52.588;22.472;2023-04-29T00:10:17;100343.81;;;4.88;65.01
34034;BME280;63481;52.588;22.472;2023-04-29T00:10:52;100344.95;;;4.89;64.93
34034;BME280;63481;52.588;22.472;2023-04-29T00:11:24;100346.16;;;4.87;65.27
34034;BME280;63481;52.588;22.472;2023-04-29T00:11:56;100347.63;;;4.84;65.37
34034;BME280;63481;52.588;22.472;2023-04-29T00:12:29;100351.52;;;4.85;63.95
34034;BME280;63481;52.588;22.472;2023-04-29T00:13:02;100346.50;;;4.95;63.25
34034;BME280;63481;52.588;22.472;2023-04-29T00:13:34;100348.68;;;4.96;63.46
34034;BME280;63481;52.588;22.472;2023-04-29T00:14:09;100349.55;;;4.98;63.94
34034;BME280;63481;52.588;22.472;2023-04-29T00:14:41;100350.49;;;4.93;65.02
34034;BME280;63481;52.588;22.472;2023-04-29T00:15:17;100348.88;;;4.87;64.66
34034;BME280;63481;52.588;22.472;2023-04-29T00:15:49;100351.77;;;4.86;64.08
34034;BME280;63481;52.588;22.472;2023-04-29T00:16:21;100351.91;;;4.85;65.08
34034;BME280;63481;52.588;22.472;2023-04-29T00:16:54;100351.63;;;4.82;64.95
34034;BME280;63481;52.588;22.472;2023-04-29T00:17:29;100350.36;;;4.77;65.85
34034;BME280;63481;52.588;22.472;2023-04-29T00:18:01;100351.10;;;4.77;64.73
34034;BME280;63481;52.588;22.472;2023-04-29T00:18:34;100354.47;;;4.79;64.81
34034;BME280;63481;52.588;22.472;2023-04-29T00:19:07;100351.98;;;4.77;65.24
34034;BME280;63481;52.588;22.472;2023-04-29T00:19:39;100348.71;;;4.78;65.05
34034;BME280;63481;52.588;22.472;2023-04-29T00:20:12;100353.48;;;4.83;64.75
34034;BME280;63481;52.588;22.472;2023-04-29T00:20:44;100350.73;;;4.84;64.49
34034;BME280;63481;52.588;22.472;2023-04-29T00:21:16;100352.52;;;4.84;64.30
34034;BME280;63481;52.588;22.472;2023-04-29T00:21:48;100355.22;;;4.81;64.44
34034;BME280;63481;52.588;22.472;2023-04-29T00:22:21;100352.44;;;4.81;65.05
34034;BME280;63481;52.588;22.472;2023-04-29T00:22:53;100351.48;;;4.78;65.22
34034;BME280;63481;52.588;22.472;2023-04-29T00:23:25;100353.77;;;4.77;64.84
34034;BME280;63481;52.588;22.472;2023-04-29T00:23:58;100351.42;;;4.77;65.17
34034;BME280;63481;52.588;22.472;2023-04-29T00:24:30;100353.48;;;4.77;65.45
34034;BME280;63481;52.588;22.472;2023-04-29T00:25:04;100353.05;;;4.72;65.75
34034;BME280;63481;52.588;22.472;2023-04-29T00:25:36;100356.77;;;4.69;66.54
34034;BME280;63481;52.588;22.472;2023-04-29T00:26:09;100354.61;;;4.66;65.99
34034;BME280;63481;52.588;22.472;2023-04-29T00:26:43;100357.11;;;4.66;65.88
34034;BME280;63481;52.588;22.472;2023-04-29T00:27:15;100356.56;;;4.67;65.46
34034;BME280;63481;52.588;22.472;2023-04-29T00:27:48;100356.52;;;4.69;65.74
34034;BME280;63481;52.588;22.472;2023-04-29T00:28:21;100356.80;;;4.67;66.57
34034;BME280;63481;52.588;22.472;2023-04-29T00:28:54;100357.02;;;4.67;66.57
34034;BME280;63481;52.588;22.472;2023-04-29T00:29:26;100355.39;;;4.65;65.56
34034;BME280;63481;52.588;22.472;2023-04-29T00:29:58;100355.63;;;4.66;65.25
34034;BME280;63481;52.588;22.472;2023-04-29T00:30:31;100355.77;;;4.69;65.67
34034;BME280;63481;52.588;22.472;2023-04-29T00:31:05;100354.29;;;4.69;66.12
34034;BME280;63481;52.588;22.472;2023-04-29T00:31:38;100355.66;;;4.68;66.15
34034;BME280;63481;52.588;22.472;2023-04-29T00:32:10;100356.23;;;4.64;65.89
34034;BME280;63481;52.588;22.472;2023-04-29T00:32:43;100356.59;;;4.64;65.65
34034;BME280;63481;52.588;22.472;2023-04-29T00:33:15;100355.92;;;4.64;65.83
34034;BME280;63481;52.588;22.472;2023-04-29T00:33:47;100355.08;;;4.62;66.10
34034;BME280;63481;52.588;22.472;2023-04-29T00:34:20;100353.02;;;4.64;65.93
34034;BME280;63481;52.588;22.472;2023-04-29T00:34:52;100356.13;;;4.62;66.08
34034;BME280;63481;52.588;22.472;2023-04-29T00:35:24;100354.70;;;4.59;66.28
34034;BME280;63481;52.588;22.472;2023-04-29T00:35:57;100358.60;;;4.57;67.33
34034;BME280;63481;52.588;22.472;2023-04-29T00:36:30;100357.15;;;4.56;67.08
34034;BME280;63481;52.588;22.472;2023-04-29T00:37:03;100357.02;;;4.54;67.17
34034;BME280;63481;52.588;22.472;2023-04-29T00:37:35;100357.70;;;4.52;66.41
34034;BME280;63481;52.588;22.472;2023-04-29T00:38:07;100356.84;;;4.52;67.39
34034;BME280;63481;52.588;22.472;2023-04-29T00:38:40;100358.16;;;4.52;67.33
34034;BME280;63481;52.588;22.472;2023-04-29T00:39:18;100358.50;;;4.53;66.60
34034;BME280;63481;52.588;22.472;2023-04-29T00:39:50;100354.24;;;4.57;66.71
34034;BME280;63481;52.588;22.472;2023-04-29T00:40:22;100352.86;;;4.58;66.78
34034;BME280;63481;52.588;22.472;2023-04-29T00:40:54;100353.43;;;4.58;66.56
34034;BME280;63481;52.588;22.472;2023-04-29T00:41:28;100353.21;;;4.58;66.46
34034;BME280;63481;52.588;22.472;2023-04-29T00:42:01;100349.16;;;4.58;65.78
34034;BME280;63481;52.588;22.472;2023-04-29T00:42:34;100349.89;;;4.61;66.04
34034;BME280;63481;52.588;22.472;2023-04-29T00:43:06;100352.30;;;4.63;66.03
34034;BME280;63481;52.588;22.472;2023-04-29T00:43:38;100351.11;;;4.61;66.32
34034;BME280;63481;52.588;22.472;2023-04-29T00:44:11;100351.60;;;4.63;66.39
34034;BME280;63481;52.588;22.472;2023-04-29T00:44:43;100351.08;;;4.61;66.58
34034;BME280;63481;52.588;22.472;2023-04-29T00:45:15;100349.94;;;4.62;66.71
34034;BME280;63481;52.588;22.472;2023-04-29T00:45:47;100351.54;;;4.62;65.55
34034;BME280;63481;52.588;22.472;2023-04-29T00:46:20;100351.77;;;4.63;65.49
34034;BME280;63481;52.588;22.472;2023-04-29T00:46:52;100349.69;;;4.64;66.15
34034;BME280;63481;52.588;22.472;2023-04-29T00:47:25;100351.23;;;4.70;65.52
34034;BME280;63481;52.588;22.472;2023-04-29T00:47:57;100348.98;;;4.74;65.64
34034;BME280;63481;52.588;22.472;2023-04-29T00:48:29;100350.73;;;4.68;66.35
34034;BME280;63481;52.588;22.472;2023-04-29T00:49:02;100348.53;;;4.65;67.31
34034;BME280;63481;52.588;22.472;2023-04-29T00:49:34;100347.30;;;4.62;66.08
34034;BME280;63481;52.588;22.472;2023-04-29T00:50:07;100344.87;;;4.62;65.47
34034;BME280;63481;52.588;22.472;2023-04-29T00:50:40;100344.99;;;4.62;65.80
34034;BME280;63481;52.588;22.472;2023-04-29T00:51:13;100343.77;;;4.64;65.81
34034;BME280;63481;52.588;22.472;2023-04-29T00:51:48;100345.09;;;4.68;65.12
34034;BME280;63481;52.588;22.472;2023-04-29T00:52:22;100344.25;;;4.67;66.02
34034;BME280;63481;52.588;22.472;2023-04-29T00:52:54;100343.14;;;4.65;65.67
34034;BME280;63481;52.588;22.472;2023-04-29T00:53:26;100346.73;;;4.64;66.62
34034;BME280;63481;52.588;22.472;2023-04-29T00:53:58;100345.85;;;4.59;66.51
34034;BME280;63481;52.588;22.472;2023-04-29T00:54:31;100344.70;;;4.56;66.31
34034;BME280;63481;52.588;22.472;2023-04-29T00:55:06;100349.55;;;4.53;66.70
34034;BME280;63481;52.588;22.472;2023-04-29T00:55:40;100347.84;;;4.53;66.48
34034;BME280;63481;52.588;22.472;2023-04-29T00:56:15;100350.81;;;4.53;66.10
34034;BME280;63481;52.588;22.472;2023-04-29T00:56:48;100345.79;;;4.53;66.22
34034;BME280;63481;52.588;22.472;2023-04-29T00:57:21;100344.87;;;4.54;66.12
34034;BME280;63481;52.588;22.472;2023-04-29T00:57:53;100349.55;;;4.53;66.58
34034;BME280;63481;52.588;22.472;2023-04-29T00:58:27;100348.17;;;4.53;65.82
34034;BME280;63481;52.588;22.472;2023-04-29T00:59:05;100345.20;;;4.56;65.49
34034;BME280;63481;52.588;22.472;2023-04-29T00:59:40;100343.97;;;4.57;65.49
34034;BME280;63481;52.588;22.472;2023-04-29T01:00:12;100340.51;;;4.58;65.71
34034;BME280;63481;52.588;22.472;2023-04-29T01:00:47;100348.54;;;4.56;66.37
34034;BME280;63481;52.588;22.472;2023-04-29T01:01:20;100342.38;;;4.57;66.35
34034;BME280;63481;52.588;22.472;2023-04-29T01:01:52;100342.85;;;4.61;65.13
34034;BME280;63481;52.588;22.472;2023-04-29T01:02:26;100344.56;;;4.63;65.19
34034;BME280;63481;52.588;22.472;2023-04-29T01:03:00;100346.91;;;4.63;65.81
34034;BME280;63481;52.588;22.472;2023-04-29T01:03:32;100344.44;;;4.59;65.64
34034;BME280;63481;52.588;22.472;2023-04-29T01:04:04;100342.39;;;4.63;64.61
34034;BME280;63481;52.588;22.472;2023-04-29T01:04:37;100341.73;;;4.65;65.91
34034;BME280;63481;52.588;22.472;2023-04-29T01:05:09;100343.44;;;4.60;65.67
34034;BME280;63481;52.588;22.472;2023-04-29T01:05:45;100343.73;;;4.64;64.76
34034;BME280;63481;52.588;22.472;2023-04-29T01:07:44;100341.05;;;4.71;64.76
34034;BME280;63481;52.588;22.472;2023-04-29T01:08:43;100342.18;;;4.70;65.01
34034;BME280;63481;52.588;22.472;2023-04-29T01:09:36;100341.52;;;4.65;65.54
34034;BME280;63481;52.588;22.472;2023-04-29T01:11:09;100343.66;;;4.54;66.37
34034;BME280;63481;52.588;22.472;2023-04-29T01:11:51;100343.92;;;4.53;65.82
34034;BME280;63481;52.588;22.472;2023-04-29T01:13:15;100343.55;;;4.53;64.98
34034;BME280;63481;52.588;22.472;2023-04-29T01:13:50;100340.57;;;4.53;65.74
34034;BME280;63481;52.588;22.472;2023-04-29T01:14:30;100344.23;;;4.52;65.77
34034;BME280;63481;52.588;22.472;2023-04-29T01:15:08;100339.59;;;4.54;65.71
34034;BME280;63481;52.588;22.472;2023-04-29T01:16:01;100340.73;;;4.51;66.03
34034;BME280;63481;52.588;22.472;2023-04-29T01:16:43;100340.02;;;4.45;65.35
34034;BME280;63481;52.588;22.472;2023-04-29T01:17:17;100337.34;;;4.47;65.63
34034;BME280;63481;52.588;22.472;2023-04-29T01:18:24;100338.47;;;4.48;65.88
34034;BME280;63481;52.588;22.472;2023-04-29T01:19:03;100335.36;;;4.51;65.96
34034;BME280;63481;52.588;22.472;2023-04-29T01:19:51;100332.17;;;4.48;66.01
34034;BME280;63481;52.588;22.472;2023-04-29T01:20:26;100337.55;;;4.40;66.38
34034;BME280;63481;52.588;22.472;2023-04-29T01:20:59;100333.14;;;4.45;65.19
34034;BME280;63481;52.588;22.472;2023-04-29T01:21:44;100336.64;;;4.46;65.92
34034;BME280;63481;52.588;22.472;2023-04-29T01:22:22;100338.98;;;4.43;65.68
34034;BME280;63481;52.588;22.472;2023-04-29T01:22:55;100339.85;;;4.43;65.97
34034;BME280;63481;52.588;22.472;2023-04-29T01:23:28;100339.95;;;4.44;66.26
34034;BME280;63481;52.588;22.472;2023-04-29T01:24:01;100338.92;;;4.39;66.47
34034;BME280;63481;52.588;22.472;2023-04-29T01:24:38;100343.17;;;4.34;66.13
34034;BME280;63481;52.588;22.472;2023-04-29T01:25:10;100337.10;;;4.32;66.86
34034;BME280;63481;52.588;22.472;2023-04-29T01:26:04;100339.38;;;4.27;66.81
34034;BME280;63481;52.588;22.472;2023-04-29T01:27:16;100337.95;;;4.30;65.90
34034;BME280;63481;52.588;22.472;2023-04-29T01:29:08;100338.74;;;4.28;66.08
34034;BME280;63481;52.588;22.472;2023-04-29T01:32:04;100338.27;;;4.19;66.94
34034;BME280;63481;52.588;22.472;2023-04-29T01:33:26;100338.60;;;4.14;67.14
34034;BME280;63481;52.588;22.472;2023-04-29T01:34:08;100338.73;;;4.13;66.95
34034;BME280;63481;52.588;22.472;2023-04-29T01:35:10;100338.07;;;4.09;66.98
34034;BME280;63481;52.588;22.472;2023-04-29T01:37:44;100339.40;;;4.04;67.20
34034;BME280;63481;52.588;22.472;2023-04-29T01:38:29;100336.50;;;4.06;66.96
34034;BME280;63481;52.588;22.472;2023-04-29T01:39:15;100340.16;;;4.06;67.83
34034;BME280;63481;52.588;22.472;2023-04-29T01:40:04;100338.68;;;4.04;67.43
34034;BME280;63481;52.588;22.472;2023-04-29T01:41:13;100338.00;;;3.98;67.45
34034;BME280;63481;52.588;22.472;2023-04-29T01:41:55;100339.05;;;3.94;67.89
34034;BME280;63481;52.588;22.472;2023-04-29T01:42:39;100339.21;;;3.97;68.18
34034;BME280;63481;52.588;22.472;2023-04-29T01:43:20;100341.71;;;4.06;67.22
34034;BME280;63481;52.588;22.472;2023-04-29T01:43:55;100340.62;;;4.04;67.48
34034;BME280;63481;52.588;22.472;2023-04-29T01:44:29;100341.77;;;3.98;67.79
34034;BME280;63481;52.588;22.472;2023-04-29T01:45:09;100340.56;;;3.93;68.04
34034;BME280;63481;52.588;22.472;2023-04-29T01:45:42;100338.33;;;3.97;67.36
34034;BME280;63481;52.588;22.472;2023-04-29T01:46:17;100339.35;;;3.98;67.49
34034;BME280;63481;52.588;22.472;2023-04-29T01:46:51;100341.84;;;3.99;67.17
34034;BME280;63481;52.588;22.472;2023-04-29T01:47:26;100344.43;;;3.98;67.18
34034;BME280;63481;52.588;22.472;2023-04-29T01:47:59;100340.87;;;3.98;67.02
34034;BME280;63481;52.588;22.472;2023-04-29T01:48:32;100341.46;;;3.97;67.36
34034;BME280;63481;52.588;22.472;2023-04-29T01:49:07;100341.86;;;3.97;67.33
34034;BME280;63481;52.588;22.472;2023-04-29T01:49:39;100341.04;;;3.98;66.88
34034;BME280;63481;52.588;22.472;2023-04-29T01:50:11;100340.04;;;3.98;67.32
34034;BME280;63481;52.588;22.472;2023-04-29T01:50:44;100340.80;;;3.94;67.51
34034;BME280;63481;52.588;22.472;2023-04-29T01:51:18;100340.99;;;3.94;67.54
34034;BME280;63481;52.588;22.472;2023-04-29T01:51:50;100342.80;;;4.00;67.27
34034;BME280;63481;52.588;22.472;2023-04-29T01:52:23;100342.72;;;4.00;67.55
34034;BME280;63481;52.588;22.472;2023-04-29T01:53:01;100341.72;;;3.95;68.34
34034;BME280;63481;52.588;22.472;2023-04-29T01:53:33;100341.91;;;3.93;67.84
34034;BME280;63481;52.588;22.472;2023-04-29T01:54:05;100344.46;;;3.94;67.64
34034;BME280;63481;52.588;22.472;2023-04-29T01:54:38;100346.11;;;3.98;67.86
34034;BME280;63481;52.588;22.472;2023-04-29T01:55:10;100345.52;;;3.96;67.51
34034;BME280;63481;52.588;22.472;2023-04-29T01:55:53;100344.13;;;3.92;68.38
34034;BME280;63481;52.588;22.472;2023-04-29T01:56:32;100339.78;;;3.88;68.02
34034;BME280;63481;52.588;22.472;2023-04-29T01:57:24;100343.37;;;3.93;67.78
34034;BME280;63481;52.588;22.472;2023-04-29T01:58:12;100343.19;;;3.89;68.22
34034;BME280;63481;52.588;22.472;2023-04-29T01:59:07;100340.56;;;3.91;67.92
34034;BME280;63481;52.588;22.472;2023-04-29T02:00:12;100339.14;;;3.90;67.84
34034;BME280;63481;52.588;22.472;2023-04-29T02:00:50;100338.88;;;3.94;67.92
34034;BME280;63481;52.588;22.472;2023-04-29T02:01:22;100338.70;;;3.89;67.99
34034;BME280;63481;52.588;22.472;2023-04-29T02:01:55;100338.80;;;3.89;67.93
34034;BME280;63481;52.588;22.472;2023-04-29T02:02:29;100341.25;;;3.90;67.90
34034;BME280;63481;52.588;22.472;2023-04-29T02:03:07;100339.55;;;3.92;67.79
34034;BME280;63481;52.588;22.472;2023-04-29T02:03:44;100339.56;;;3.93;67.34
34034;BME280;63481;52.588;22.472;2023-04-29T02:04:17;100341.92;;;3.93;67.62
34034;BME280;63481;52.588;22.472;2023-04-29T02:04:49;100342.49;;;3.88;68.32
34034;BME280;63481;52.588;22.472;2023-04-29T02:05:22;100341.42;;;3.83;68.30
34034;BME280;63481;52.588;22.472;2023-04-29T02:06:00;100341.38;;;3.87;67.71
34034;BME280;63481;52.588;22.472;2023-04-29T02:06:34;100343.39;;;3.88;67.87
34034;BME280;63481;52.588;22.472;2023-04-29T02:07:08;100343.06;;;3.88;68.05
34034;BME280;63481;52.588;22.472;2023-04-29T02:07:41;100342.81;;;3.83;68.70
34034;BME280;63481;52.588;22.472;2023-04-29T02:08:18;100338.14;;;3.83;68.48
34034;BME280;63481;52.588;22.472;2023-04-29T02:08:51;100336.98;;;3.84;68.46
34034;BME280;63481;52.588;22.472;2023-04-29T02:09:24;100338.48;;;3.82;68.20
34034;BME280;63481;52.588;22.472;2023-04-29T02:10:00;100340.71;;;3.86;68.11
34034;BME280;63481;52.588;22.472;2023-04-29T02:10:32;100339.89;;;3.89;67.82
34034;BME280;63481;52.588;22.472;2023-04-29T02:11:25;100340.40;;;3.89;67.55
34034;BME280;63481;52.588;22.472;2023-04-29T02:12:00;100339.90;;;3.92;67.23
34034;BME280;63481;52.588;22.472;2023-04-29T02:12:35;100339.41;;;3.97;67.32
34034;BME280;63481;52.588;22.472;2023-04-29T02:13:08;100337.67;;;3.97;67.40
34034;BME280;63481;52.588;22.472;2023-04-29T02:13:42;100337.00;;;3.90;68.41
34034;BME280;63481;52.588;22.472;2023-04-29T02:14:18;100337.85;;;3.88;67.69
34034;BME280;63481;52.588;22.472;2023-04-29T02:14:52;100339.21;;;3.91;67.39
34034;BME280;63481;52.588;22.472;2023-04-29T02:15:26;100339.65;;;3.93;67.49
34034;BME280;63481;52.588;22.472;2023-04-29T02:16:10;100337.90;;;3.96;67.16
34034;BME280;63481;52.588;22.472;2023-04-29T02:16:47;100337.41;;;3.99;67.20
34034;BME280;63481;52.588;22.472;2023-04-29T02:17:19;100336.82;;;4.01;67.00
34034;BME280;63481;52.588;22.472;2023-04-29T02:17:51;100339.83;;;4.00;67.16
34034;BME280;63481;52.588;22.472;2023-04-29T02:18:25;100337.24;;;3.97;67.31
34034;BME280;63481;52.588;22.472;2023-04-29T02:18:57;100338.33;;;3.97;67.11
34034;BME280;63481;52.588;22.472;2023-04-29T02:19:30;100337.60;;;3.94;67.81
34034;BME280;63481;52.588;22.472;2023-04-29T02:20:02;100335.89;;;3.95;67.62
34034;BME280;63481;52.588;22.472;2023-04-29T02:20:35;100336.77;;;3.95;67.88
34034;BME280;63481;52.588;22.472;2023-04-29T02:21:10;100335.86;;;3.94;67.60
34034;BME280;63481;52.588;22.472;2023-04-29T02:21:43;100332.89;;;3.97;67.46
34034;BME280;63481;52.588;22.472;2023-04-29T02:22:15;100337.36;;;4.05;66.71
34034;BME280;63481;52.588;22.472;2023-04-29T02:22:47;100334.40;;;4.08;66.72
34034;BME280;63481;52.588;22.472;2023-04-29T02:23:20;100335.39;;;4.09;67.02
34034;BME280;63481;52.588;22.472;2023-04-29T02:23:52;100338.52;;;4.10;66.37
34034;BME280;63481;52.588;22.472;2023-04-29T02:24:28;100338.33;;;4.07;67.35
34034;BME280;63481;52.588;22.472;2023-04-29T02:25:00;100337.06;;;4.06;67.39
34034;BME280;63481;52.588;22.472;2023-04-29T02:25:33;100336.20;;;4.05;67.62
34034;BME280;63481;52.588;22.472;2023-04-29T02:26:05;100334.15;;;4.03;67.63
34034;BME280;63481;52.588;22.472;2023-04-29T02:26:38;100334.98;;;4.02;67.16
34034;BME280;63481;52.588;22.472;2023-04-29T02:27:10;100335.07;;;4.03;67.41
34034;BME280;63481;52.588;22.472;2023-04-29T02:27:42;100331.64;;;4.02;67.13
34034;BME280;63481;52.588;22.472;2023-04-29T02:28:15;100333.52;;;4.03;67.21
34034;BME280;63481;52.588;22.472;2023-04-29T02:28:48;100334.25;;;4.02;67.67
34034;BME280;63481;52.588;22.472;2023-04-29T02:29:21;100331.87;;;3.98;67.87
34034;BME280;63481;52.588;22.472;2023-04-29T02:29:54;100334.46;;;3.95;67.70
34034;BME280;63481;52.588;22.472;2023-04-29T02:30:26;100333.52;;;3.99;67.56
34034;BME280;63481;52.588;22.472;2023-04-29T02:30:58;100331.70;;;4.01;67.34
34034;BME280;63481;52.588;22.472;2023-04-29T02:31:30;100330.64;;;4.01;67.48
34034;BME280;63481;52.588;22.472;2023-04-29T02:32:04;100332.67;;;4.02;67.16
34034;BME280;63481;52.588;22.472;2023-04-29T02:32:37;100331.86;;;3.97;68.36
34034;BME280;63481;52.588;22.472;2023-04-29T02:33:11;100332.16;;;3.96;67.87
34034;BME280;63481;52.588;22.472;2023-04-29T02:33:43;100332.20;;;4.00;67.97
34034;BME280;63481;52.588;22.472;2023-04-29T02:34:15;100333.56;;;4.02;67.95
34034;BME280;63481;52.588;22.472;2023-04-29T02:34:48;100329.70;;;4.10;66.40
34034;BME280;63481;52.588;22.472;2023-04-29T02:35:20;100330.98;;;4.11;66.85
34034;BME280;63481;52.588;22.472;2023-04-29T02:35:53;100329.30;;;4.13;66.78
34034;BME280;63481;52.588;22.472;2023-04-29T02:36:25;100333.22;;;4.12;66.77
34034;BME280;63481;52.588;22.472;2023-04-29T02:37:00;100331.16;;;4.10;66.90
34034;BME280;63481;52.588;22.472;2023-04-29T02:37:33;100329.80;;;4.09;67.38
34034;BME280;63481;52.588;22.472;2023-04-29T02:38:06;100332.70;;;4.04;67.76
34034;BME280;63481;52.588;22.472;2023-04-29T02:38:38;100327.48;;;3.98;67.77
34034;BME280;63481;52.588;22.472;2023-04-29T02:39:12;100329.69;;;3.94;68.15
34034;BME280;63481;52.588;22.472;2023-04-29T02:39:45;100327.39;;;3.92;67.97
34034;BME280;63481;52.588;22.472;2023-04-29T02:40:18;100324.28;;;3.97;67.48
34034;BME280;63481;52.588;22.472;2023-04-29T02:40:50;100327.41;;;3.96;68.35
34034;BME280;63481;52.588;22.472;2023-04-29T02:41:22;100326.55;;;3.95;68.04
34034;BME280;63481;52.588;22.472;2023-04-29T02:41:56;100325.76;;;3.93;67.90
34034;BME280;63481;52.588;22.472;2023-04-29T02:42:29;100327.10;;;3.90;68.54
34034;BME280;63481;52.588;22.472;2023-04-29T02:43:01;100326.70;;;3.89;68.45
34034;BME280;63481;52.588;22.472;2023-04-29T02:43:35;100324.60;;;3.92;67.68
34034;BME280;63481;52.588;22.472;2023-04-29T02:44:07;100325.56;;;3.96;67.33
34034;BME280;63481;52.588;22.472;2023-04-29T02:44:39;100325.07;;;3.96;68.13
34034;BME280;63481;52.588;22.472;2023-04-29T02:45:14;100326.03;;;4.02;67.20
34034;BME280;63481;52.588;22.472;2023-04-29T02:45:46;100326.05;;;4.05;67.15
34034;BME280;63481;52.588;22.472;2023-04-29T02:46:18;100327.09;;;4.05;67.68
34034;BME280;63481;52.588;22.472;2023-04-29T02:46:51;100326.71;;;4.02;67.88
34034;BME280;63481;52.588;22.472;2023-04-29T02:47:23;100327.46;;;4.03;67.74
34034;BME280;63481;52.588;22.472;2023-04-29T02:47:55;100326.29;;;4.05;67.43
34034;BME280;63481;52.588;22.472;2023-04-29T02:48:28;100326.91;;;4.05;68.03
34034;BME280;63481;52.588;22.472;2023-04-29T02:49:00;100324.52;;;4.06;67.38
34034;BME280;63481;52.588;22.472;2023-04-29T02:49:33;100325.70;;;4.10;68.11
34034;BME280;63481;52.588;22.472;2023-04-29T02:50:06;100325.77;;;4.09;68.60
34034;BME280;63481;52.588;22.472;2023-04-29T02:50:38;100326.27;;;4.06;67.94
34034;BME280;63481;52.588;22.472;2023-04-29T02:51:10;100328.58;;;4.04;68.30
34034;BME280;63481;52.588;22.472;2023-04-29T02:51:43;100328.00;;;4.08;67.10
34034;BME280;63481;52.588;22.472;2023-04-29T02:52:18;100330.32;;;4.13;67.39
34034;BME280;63481;52.588;22.472;2023-04-29T02:52:51;100324.02;;;4.12;67.72
34034;BME280;63481;52.588;22.472;2023-04-29T02:53:23;100327.16;;;4.11;67.92
34034;BME280;63481;52.588;22.472;2023-04-29T02:53:55;100324.40;;;4.09;68.24
34034;BME280;63481;52.588;22.472;2023-04-29T02:54:28;100324.36;;;4.08;68.27
34034;BME280;63481;52.588;22.472;2023-04-29T02:55:00;100325.98;;;4.09;67.67
34034;BME280;63481;52.588;22.472;2023-04-29T02:55:32;100326.77;;;4.06;67.49
34034;BME280;63481;52.588;22.472;2023-04-29T02:56:09;100324.33;;;4.06;67.19
34034;BME280;63481;52.588;22.472;2023-04-29T02:56:42;100327.70;;;4.09;67.85
34034;BME280;63481;52.588;22.472;2023-04-29T02:57:14;100324.63;;;4.08;68.16
34034;BME280;63481;52.588;22.472;2023-04-29T02:57:47;100326.21;;;4.05;68.24
34034;BME280;63481;52.588;22.472;2023-04-29T02:58:19;100326.19;;;4.06;68.11
34034;BME280;63481;52.588;22.472;2023-04-29T02:58:51;100327.04;;;4.06;68.00
34034;BME280;63481;52.588;22.472;2023-04-29T02:59:23;100324.42;;;4.04;68.10
34034;BME280;63481;52.588;22.472;2023-04-29T02:59:56;100325.27;;;4.06;67.86
34034;BME280;63481;52.588;22.472;2023-04-29T03:00:29;100323.50;;;4.04;68.36
34034;BME280;63481;52.588;22.472;2023-04-29T03:01:01;100325.52;;;4.02;68.13
34034;BME280;63481;52.588;22.472;2023-04-29T03:01:35;100323.85;;;4.04;68.00
34034;BME280;63481;52.588;22.472;2023-04-29T03:02:07;100325.32;;;4.05;68.09
34034;BME280;63481;52.588;22.472;2023-04-29T03:02:39;100326.34;;;4.09;68.29
34034;BME280;63481;52.588;22.472;2023-04-29T03:03:12;100323.39;;;4.13;67.56
34034;BME280;63481;52.588;22.472;2023-04-29T03:03:44;100325.20;;;4.11;68.41
34034;BME280;63481;52.588;22.472;2023-04-29T03:04:17;100322.85;;;4.09;68.04
34034;BME280;63481;52.588;22.472;2023-04-29T03:04:49;100322.00;;;4.07;68.24
34034;BME280;63481;52.588;22.472;2023-04-29T03:05:22;100318.03;;;4.08;68.25
34034;BME280;63481;52.588;22.472;2023-04-29T03:05:54;100320.62;;;4.10;67.76
34034;BME280;63481;52.588;22.472;2023-04-29T03:06:26;100321.90;;;4.14;67.38
34034;BME280;63481;52.588;22.472;2023-04-29T03:06:59;100322.54;;;4.15;68.04
34034;BME280;63481;52.588;22.472;2023-04-29T03:07:32;100319.59;;;4.16;67.82
34034;BME280;63481;52.588;22.472;2023-04-29T03:08:04;100321.30;;;4.18;67.62
34034;BME280;63481;52.588;22.472;2023-04-29T03:08:37;100319.33;;;4.15;68.53
34034;BME280;63481;52.588;22.472;2023-04-29T03:09:09;100319.20;;;4.15;68.00
34034;BME280;63481;52.588;22.472;2023-04-29T03:09:41;100320.65;;;4.14;68.58
34034;BME280;63481;52.588;22.472;2023-04-29T03:10:14;100319.22;;;4.16;67.45
34034;BME280;63481;52.588;22.472;2023-04-29T03:10:46;100321.81;;;4.20;67.44
34034;BME280;63481;52.588;22.472;2023-04-29T03:11:19;100319.83;;;4.19;67.72